createdAt,value
2018-03-26T00:00:22.182Z,989.67
2018-03-26T00:01:22.096Z,989.71
2018-03-26T00:02:22.042Z,989.70
2018-03-26T00:03:21.956Z,989.75
2018-03-26T00:04:21.903Z,989.69
2018-03-26T00:05:21.819Z,989.68
2018-03-26T00:06:21.749Z,989.75
2018-03-26T00:07:21.671Z,989.78
2018-03-26T00:08:21.592Z,989.75
2018-03-26T00:09:21.518Z,989.76
2018-03-26T00:10:21.459Z,989.73
2018-03-26T00:11:21.370Z,989.75
2018-03-26T00:12:21.304Z,989.76
2018-03-26T00:13:21.252Z,989.79
2018-03-26T00:14:21.186Z,989.78
2018-03-26T00:15:21.107Z,989.85
2018-03-26T00:16:21.017Z,989.82
2018-03-26T00:17:20.982Z,989.83
2018-03-26T00:18:20.892Z,989.74
2018-03-26T00:19:20.806Z,989.77
2018-03-26T00:20:20.749Z,989.82
2018-03-26T00:21:20.667Z,989.81
2018-03-26T00:22:20.606Z,989.77
2018-03-26T00:23:20.512Z,989.77
2018-03-26T00:24:20.456Z,989.83
2018-03-26T00:25:20.384Z,989.77
2018-03-26T00:26:20.316Z,989.83
2018-03-26T00:27:20.237Z,989.78
2018-03-26T00:28:20.156Z,989.81
2018-03-26T00:29:20.094Z,989.80
2018-03-26T00:30:20.015Z,989.77
2018-03-26T00:31:19.942Z,989.76
2018-03-26T00:32:19.888Z,989.81
2018-03-26T00:33:19.814Z,989.73
2018-03-26T00:34:19.764Z,989.81
2018-03-26T00:35:19.663Z,989.79
2018-03-26T00:36:19.603Z,989.75
2018-03-26T00:37:19.532Z,989.77
2018-03-26T00:38:19.494Z,989.77
2018-03-26T00:39:19.418Z,989.81
2018-03-26T00:40:19.310Z,989.76
2018-03-26T00:41:19.217Z,989.76
2018-03-26T00:42:19.140Z,989.79
2018-03-26T00:43:19.087Z,989.78
2018-03-26T00:44:19.021Z,989.78
2018-03-26T00:45:18.940Z,989.80
2018-03-26T00:46:18.881Z,989.81
2018-03-26T00:47:18.814Z,989.82
2018-03-26T00:48:18.736Z,989.79
2018-03-26T00:49:18.658Z,989.78
2018-03-26T00:50:18.586Z,989.85
2018-03-26T00:51:18.500Z,989.84
2018-03-26T00:52:18.442Z,989.91
2018-03-26T00:53:18.369Z,989.99
2018-03-26T00:54:18.301Z,990.02
2018-03-26T00:55:18.210Z,989.95
2018-03-26T00:56:18.147Z,990.03
2018-03-26T00:57:18.098Z,990.04
2018-03-26T00:58:17.996Z,990.02
2018-03-26T00:59:17.948Z,990.07
2018-03-26T01:00:17.852Z,990.10
2018-03-26T01:01:17.782Z,990.07
2018-03-26T01:02:17.775Z,990.17
2018-03-26T01:03:17.635Z,990.14
2018-03-26T01:04:17.627Z,990.21
2018-03-26T01:05:17.511Z,990.21
2018-03-26T01:06:17.425Z,990.24
2018-03-26T01:07:17.361Z,990.16
2018-03-26T01:08:17.303Z,990.15
2018-03-26T01:09:17.252Z,990.20
2018-03-26T01:10:17.124Z,990.15
2018-03-26T01:11:17.058Z,990.17
2018-03-26T01:12:16.983Z,990.24
2018-03-26T01:13:16.915Z,990.15
2018-03-26T01:14:16.858Z,990.21
2018-03-26T01:15:16.820Z,990.19
2018-03-26T01:16:16.714Z,990.16
2018-03-26T01:17:16.627Z,990.22
2018-03-26T01:18:16.593Z,990.17
2018-03-26T01:19:16.494Z,990.18
2018-03-26T01:20:16.411Z,990.21
2018-03-26T01:21:16.361Z,990.30
2018-03-26T01:22:16.281Z,990.30
2018-03-26T01:23:16.213Z,990.21
2018-03-26T01:24:16.142Z,990.30
2018-03-26T01:25:16.061Z,990.30
2018-03-26T01:26:15.994Z,990.33
2018-03-26T01:27:15.902Z,990.30
2018-03-26T01:28:15.835Z,990.30
2018-03-26T01:29:15.757Z,990.38
2018-03-26T01:30:15.700Z,990.42
2018-03-26T01:31:15.627Z,990.41
2018-03-26T01:32:15.562Z,990.35
2018-03-26T01:33:15.488Z,990.35
2018-03-26T01:34:15.426Z,990.33
2018-03-26T01:35:15.351Z,990.28
2018-03-26T01:36:15.264Z,990.28
2018-03-26T01:37:15.196Z,990.30
2018-03-26T01:38:15.126Z,990.24
2018-03-26T01:39:15.054Z,990.30
2018-03-26T01:40:14.973Z,990.29
2018-03-26T01:41:14.916Z,990.25
2018-03-26T01:42:14.835Z,990.29
2018-03-26T01:43:14.771Z,990.25
2018-03-26T01:44:14.702Z,990.36
2018-03-26T01:45:14.630Z,990.27
2018-03-26T01:46:14.537Z,990.32
2018-03-26T01:47:14.494Z,990.32
2018-03-26T01:48:14.393Z,990.31
2018-03-26T01:49:14.321Z,990.36
2018-03-26T01:50:14.251Z,990.30
2018-03-26T01:51:14.176Z,990.30
2018-03-26T01:52:14.121Z,990.32
2018-03-26T01:53:14.040Z,990.24
2018-03-26T01:54:13.956Z,990.30
2018-03-26T01:55:13.954Z,990.31
2018-03-26T01:56:13.813Z,990.29
2018-03-26T01:57:13.760Z,990.29
2018-03-26T01:58:13.671Z,990.28
2018-03-26T01:59:13.614Z,990.27
2018-03-26T02:00:13.542Z,990.19
2018-03-26T02:01:13.455Z,990.23
2018-03-26T02:02:13.379Z,990.19
2018-03-26T02:03:13.332Z,990.14
2018-03-26T02:04:13.235Z,990.15
2018-03-26T02:05:13.163Z,990.21
2018-03-26T02:06:13.091Z,990.27
2018-03-26T02:07:13.013Z,990.19
2018-03-26T02:08:12.977Z,990.23
2018-03-26T02:09:12.914Z,990.16
2018-03-26T02:10:12.806Z,990.16
2018-03-26T02:11:12.731Z,990.19
2018-03-26T02:12:12.663Z,990.14
2018-03-26T02:13:12.598Z,990.16
2018-03-26T02:14:12.524Z,990.18
2018-03-26T02:15:12.455Z,990.21
2018-03-26T02:16:12.388Z,990.19
2018-03-26T02:17:12.313Z,990.21
2018-03-26T02:18:12.253Z,990.23
2018-03-26T02:19:12.154Z,990.22
2018-03-26T02:20:12.119Z,990.19
2018-03-26T02:21:12.008Z,990.19
2018-03-26T02:22:11.947Z,990.17
2018-03-26T02:23:11.859Z,990.26
2018-03-26T02:24:11.810Z,990.25
2018-03-26T02:25:11.729Z,990.29
2018-03-26T02:26:11.664Z,990.27
2018-03-26T02:27:11.577Z,990.24
2018-03-26T02:28:11.520Z,990.16
2018-03-26T02:29:11.458Z,990.25
2018-03-26T02:30:11.366Z,990.24
2018-03-26T02:31:11.283Z,990.34
2018-03-26T02:32:11.234Z,990.29
2018-03-26T02:33:11.135Z,990.33
2018-03-26T02:34:11.089Z,990.43
2018-03-26T02:35:11.011Z,990.47
2018-03-26T02:36:10.919Z,990.50
2018-03-26T02:37:10.850Z,990.52
2018-03-26T02:38:10.793Z,990.45
2018-03-26T02:39:10.704Z,990.52
2018-03-26T02:40:10.637Z,990.61
2018-03-26T02:41:10.568Z,990.62
2018-03-26T02:42:10.506Z,990.61
2018-03-26T02:43:10.458Z,990.66
2018-03-26T02:44:10.364Z,990.56
2018-03-26T02:45:10.273Z,990.62
2018-03-26T02:46:10.216Z,990.64
2018-03-26T02:47:10.148Z,990.64
2018-03-26T02:48:10.051Z,990.69
2018-03-26T02:49:09.992Z,990.69
2018-03-26T02:50:09.940Z,990.72
2018-03-26T02:51:09.856Z,990.71
2018-03-26T02:52:09.766Z,990.74
2018-03-26T02:53:09.885Z,990.77
2018-03-26T02:54:09.620Z,990.75
2018-03-26T02:55:09.590Z,990.77
2018-03-26T02:56:09.474Z,990.80
2018-03-26T02:57:09.420Z,990.86
2018-03-26T02:58:09.343Z,990.89
2018-03-26T02:59:09.261Z,990.89
2018-03-26T03:00:09.187Z,990.89
2018-03-26T03:01:09.134Z,990.90
2018-03-26T03:02:09.041Z,990.87
2018-03-26T03:03:08.994Z,990.88
2018-03-26T03:04:08.927Z,990.88
2018-03-26T03:05:08.838Z,990.86
2018-03-26T03:06:08.771Z,990.91
2018-03-26T03:07:08.684Z,990.84
2018-03-26T03:08:08.611Z,990.90
2018-03-26T03:09:08.539Z,990.88
2018-03-26T03:10:08.478Z,990.85
2018-03-26T03:11:08.404Z,990.98
2018-03-26T03:12:08.336Z,990.86
2018-03-26T03:13:08.245Z,990.95
2018-03-26T03:14:08.171Z,991.00
2018-03-26T03:15:08.097Z,990.92
2018-03-26T03:16:08.024Z,991.04
2018-03-26T03:17:07.955Z,990.98
2018-03-26T03:18:07.887Z,990.94
2018-03-26T03:19:07.829Z,990.98
2018-03-26T03:20:07.739Z,990.97
2018-03-26T03:21:07.704Z,990.96
2018-03-26T03:22:07.616Z,990.97
2018-03-26T03:23:07.562Z,990.98
2018-03-26T03:24:07.477Z,990.99
2018-03-26T03:25:07.394Z,991.05
2018-03-26T03:26:07.315Z,990.99
2018-03-26T03:27:07.254Z,991.04
2018-03-26T03:28:07.184Z,991.04
2018-03-26T03:29:07.102Z,991.02
2018-03-26T03:30:07.018Z,991.05
2018-03-26T03:31:06.978Z,991.14
2018-03-26T03:32:06.877Z,991.04
2018-03-26T03:33:06.820Z,991.07
2018-03-26T03:34:06.743Z,991.10
2018-03-26T03:35:06.680Z,991.07
2018-03-26T03:36:06.591Z,991.11
2018-03-26T03:37:06.530Z,991.11
2018-03-26T03:38:06.472Z,991.18
2018-03-26T03:39:06.388Z,991.14
2018-03-26T03:40:06.313Z,991.18
2018-03-26T03:41:06.222Z,991.19
2018-03-26T03:42:06.156Z,991.17
2018-03-26T03:43:06.083Z,991.15
2018-03-26T03:44:06.009Z,991.17
2018-03-26T03:45:05.953Z,991.23
2018-03-26T03:46:05.869Z,991.17
2018-03-26T03:47:05.796Z,991.12
2018-03-26T03:48:05.723Z,991.16
2018-03-26T03:49:05.650Z,991.12
2018-03-26T03:50:05.580Z,991.17
2018-03-26T03:51:05.506Z,991.13
2018-03-26T03:52:05.442Z,991.18
2018-03-26T03:53:05.357Z,991.16
2018-03-26T03:54:05.287Z,991.16
2018-03-26T03:55:05.248Z,991.14
2018-03-26T03:56:05.146Z,991.10
2018-03-26T03:57:05.095Z,991.15
2018-03-26T03:58:05.030Z,991.00
2018-03-26T03:59:04.933Z,991.07
2018-03-26T04:00:04.899Z,991.12
2018-03-26T04:01:04.796Z,991.15
2018-03-26T04:02:04.728Z,991.11
2018-03-26T04:03:04.661Z,991.21
2018-03-26T04:04:04.584Z,991.20
2018-03-26T04:05:04.512Z,991.29
2018-03-26T04:06:04.442Z,991.26
2018-03-26T04:07:04.347Z,991.34
2018-03-26T04:08:04.283Z,991.34
2018-03-26T04:09:04.222Z,991.28
2018-03-26T04:10:04.133Z,991.29
2018-03-26T04:11:04.082Z,991.29
2018-03-26T04:12:03.993Z,991.30
2018-03-26T04:13:03.935Z,991.30
2018-03-26T04:14:03.849Z,991.30
2018-03-26T04:15:03.776Z,991.35
2018-03-26T04:16:03.731Z,991.39
2018-03-26T04:17:03.637Z,991.41
2018-03-26T04:18:03.590Z,991.44
2018-03-26T04:19:03.501Z,991.40
2018-03-26T04:20:03.447Z,991.46
2018-03-26T04:21:03.350Z,991.41
2018-03-26T04:22:03.269Z,991.42
2018-03-26T04:23:03.193Z,991.41
2018-03-26T04:24:03.126Z,991.40
2018-03-26T04:25:03.055Z,991.40
2018-03-26T04:26:02.996Z,991.41
2018-03-26T04:27:02.928Z,991.39
2018-03-26T04:28:02.842Z,991.43
2018-03-26T04:29:02.768Z,991.41
2018-03-26T04:30:02.712Z,991.46
2018-03-26T04:31:02.627Z,991.45
2018-03-26T04:32:02.585Z,991.54
2018-03-26T04:33:02.497Z,991.56
2018-03-26T04:34:02.428Z,991.55
2018-03-26T04:35:02.333Z,991.53
2018-03-26T04:36:02.261Z,991.52
2018-03-26T04:37:02.189Z,991.48
2018-03-26T04:38:02.137Z,991.54
2018-03-26T04:39:02.067Z,991.55
2018-03-26T04:40:01.994Z,991.53
2018-03-26T04:41:01.926Z,991.56
2018-03-26T04:42:01.855Z,991.50
2018-03-26T04:43:01.773Z,991.50
2018-03-26T04:44:01.707Z,991.52
2018-03-26T04:45:01.631Z,991.53
2018-03-26T04:46:01.580Z,991.59
2018-03-26T04:47:01.490Z,991.48
2018-03-26T04:48:01.395Z,991.48
2018-03-26T04:49:01.329Z,991.52
2018-03-26T04:50:01.257Z,991.52
2018-03-26T04:51:01.198Z,991.50
2018-03-26T04:52:01.128Z,991.52
2018-03-26T04:53:01.051Z,991.50
2018-03-26T04:54:00.964Z,991.51
2018-03-26T04:55:00.925Z,991.49
2018-03-26T04:56:00.833Z,991.50
2018-03-26T04:57:00.768Z,991.55
2018-03-26T04:58:00.696Z,991.52
2018-03-26T04:59:00.659Z,991.49
2018-03-26T05:00:00.537Z,991.48
2018-03-26T05:01:00.469Z,991.46
2018-03-26T05:02:00.413Z,991.48
2018-03-26T05:03:00.321Z,991.45
2018-03-26T05:04:00.251Z,991.47
2018-03-26T05:05:00.200Z,991.45
2018-03-26T05:06:00.097Z,991.43
2018-03-26T05:07:00.029Z,991.50
2018-03-26T05:07:59.980Z,991.52
2018-03-26T05:08:59.900Z,991.58
2018-03-26T05:09:59.829Z,991.52
2018-03-26T05:10:59.742Z,991.50
2018-03-26T05:11:59.670Z,991.53
2018-03-26T05:12:59.592Z,991.61
2018-03-26T05:13:59.516Z,991.60
2018-03-26T05:14:59.458Z,991.54
2018-03-26T05:15:59.378Z,991.50
2018-03-26T05:16:59.307Z,991.52
2018-03-26T05:17:59.259Z,991.52
2018-03-26T05:18:59.187Z,991.59
2018-03-26T05:19:59.106Z,991.54
2018-03-26T05:20:59.039Z,991.58
2018-03-26T05:21:58.947Z,991.61
2018-03-26T05:22:58.898Z,991.63
2018-03-26T05:23:58.823Z,991.65
2018-03-26T05:24:58.744Z,991.60
2018-03-26T05:25:58.656Z,991.73
2018-03-26T05:26:58.585Z,991.71
2018-03-26T05:27:58.521Z,991.75
2018-03-26T05:28:58.465Z,991.84
2018-03-26T05:29:58.371Z,991.75
2018-03-26T05:30:58.334Z,991.83
2018-03-26T05:31:58.222Z,991.74
2018-03-26T05:32:58.148Z,991.87
2018-03-26T05:33:58.075Z,991.80
2018-03-26T05:34:58.006Z,991.85
2018-03-26T05:35:57.948Z,991.85
2018-03-26T05:36:57.863Z,991.89
2018-03-26T05:37:57.803Z,991.67
2018-03-26T05:38:57.731Z,991.85
2018-03-26T05:39:57.672Z,991.84
2018-03-26T05:40:57.579Z,991.87
2018-03-26T05:41:57.520Z,991.87
2018-03-26T05:42:57.424Z,991.84
2018-03-26T05:43:57.385Z,991.91
2018-03-26T05:44:57.298Z,991.92
2018-03-26T05:45:57.215Z,991.97
2018-03-26T05:46:57.149Z,992.01
2018-03-26T05:47:57.079Z,992.07
2018-03-26T05:48:56.992Z,991.99
2018-03-26T05:49:56.938Z,992.00
2018-03-26T05:50:56.861Z,992.06
2018-03-26T05:51:56.798Z,992.09
2018-03-26T05:52:56.723Z,992.11
2018-03-26T05:53:56.641Z,992.08
2018-03-26T05:54:56.571Z,992.15
2018-03-26T05:55:56.509Z,992.20
2018-03-26T05:56:56.421Z,992.13
2018-03-26T05:57:56.361Z,992.08
2018-03-26T05:58:56.278Z,992.14
2018-03-26T05:59:56.211Z,992.11
2018-03-26T06:00:56.140Z,992.12
2018-03-26T06:01:56.063Z,992.25
2018-03-26T06:02:55.985Z,992.27
2018-03-26T06:03:55.906Z,992.21
2018-03-26T06:04:55.845Z,992.19
2018-03-26T06:05:55.785Z,992.18
2018-03-26T06:06:55.699Z,992.16
2018-03-26T06:07:55.629Z,992.03
2018-03-26T06:08:55.536Z,992.07
2018-03-26T06:09:55.464Z,991.98
2018-03-26T06:10:55.391Z,992.12
2018-03-26T06:11:55.321Z,992.08
2018-03-26T06:12:55.279Z,992.10
2018-03-26T06:13:55.190Z,992.12
2018-03-26T06:14:55.124Z,992.07
2018-03-26T06:15:55.061Z,992.00
2018-03-26T06:16:54.960Z,992.14
2018-03-26T06:17:54.899Z,992.17
2018-03-26T06:18:54.825Z,992.16
2018-03-26T06:19:54.760Z,992.18
2018-03-26T06:20:54.668Z,992.16
2018-03-26T06:21:54.617Z,992.23
2018-03-26T06:22:54.541Z,992.24
2018-03-26T06:23:54.465Z,992.34
2018-03-26T06:24:54.432Z,992.36
2018-03-26T06:25:54.310Z,992.52
2018-03-26T06:26:54.234Z,992.40
2018-03-26T06:27:54.158Z,992.46
2018-03-26T06:28:54.108Z,992.49
2018-03-26T06:29:54.029Z,992.52
2018-03-26T06:30:53.947Z,992.51
2018-03-26T06:31:53.885Z,992.65
2018-03-26T06:32:53.796Z,992.54
2018-03-26T06:33:53.724Z,992.67
2018-03-26T06:34:53.648Z,992.64
2018-03-26T06:35:53.611Z,992.76
2018-03-26T06:36:53.527Z,992.68
2018-03-26T06:37:53.432Z,992.71
2018-03-26T06:38:53.362Z,992.76
2018-03-26T06:39:53.301Z,992.86
2018-03-26T06:40:53.237Z,992.62
2018-03-26T06:41:53.154Z,992.85
2018-03-26T06:42:53.091Z,992.88
2018-03-26T06:43:53.021Z,992.86
2018-03-26T06:44:52.942Z,992.93
2018-03-26T06:45:52.856Z,992.88
2018-03-26T06:46:52.785Z,992.92
2018-03-26T06:47:52.716Z,992.96
2018-03-26T06:48:52.665Z,992.93
2018-03-26T06:49:52.591Z,993.02
2018-03-26T06:50:52.515Z,992.92
2018-03-26T06:51:52.434Z,992.93
2018-03-26T06:52:52.365Z,993.01
2018-03-26T06:53:52.303Z,993.04
2018-03-26T06:54:52.221Z,993.08
2018-03-26T06:55:52.146Z,993.03
2018-03-26T06:56:52.097Z,993.19
2018-03-26T06:57:52.032Z,993.01
2018-03-26T06:58:51.942Z,993.06
2018-03-26T06:59:51.859Z,993.11
2018-03-26T07:00:51.810Z,993.11
2018-03-26T07:01:51.722Z,993.09
2018-03-26T07:02:51.660Z,993.22
2018-03-26T07:03:51.611Z,993.19
2018-03-26T07:04:51.505Z,993.20
2018-03-26T07:05:51.436Z,993.23
2018-03-26T07:06:51.366Z,993.31
2018-03-26T07:07:51.318Z,993.41
2018-03-26T07:08:51.222Z,993.40
2018-03-26T07:09:51.158Z,993.41
2018-03-26T07:10:51.101Z,993.35
2018-03-26T07:11:51.032Z,993.33
2018-03-26T07:12:50.965Z,993.29
2018-03-26T07:13:50.877Z,993.37
2018-03-26T07:14:50.803Z,993.32
2018-03-26T07:15:50.733Z,993.26
2018-03-26T07:16:50.661Z,993.24
2018-03-26T07:17:50.588Z,993.25
2018-03-26T07:18:50.532Z,993.29
2018-03-26T07:19:50.460Z,993.37
2018-03-26T07:20:50.397Z,993.28
2018-03-26T07:21:50.333Z,993.29
2018-03-26T07:22:50.268Z,993.34
2018-03-26T07:23:50.191Z,993.31
2018-03-26T07:24:50.102Z,993.32
2018-03-26T07:25:50.048Z,993.45
2018-03-26T07:26:49.976Z,993.40
2018-03-26T07:27:49.918Z,993.34
2018-03-26T07:28:49.851Z,993.42
2018-03-26T07:29:49.748Z,993.34
2018-03-26T07:30:49.682Z,993.42
2018-03-26T07:31:49.627Z,993.45
2018-03-26T07:32:49.570Z,993.55
2018-03-26T07:33:49.470Z,993.51
2018-03-26T07:34:49.400Z,993.56
2018-03-26T07:35:49.349Z,993.52
2018-03-26T07:36:49.273Z,993.67
2018-03-26T07:37:49.196Z,993.62
2018-03-26T07:38:49.128Z,993.59
2018-03-26T07:39:49.064Z,993.65
2018-03-26T07:40:49.009Z,993.67
2018-03-26T07:41:48.939Z,993.68
2018-03-26T07:42:48.852Z,993.70
2018-03-26T07:43:48.802Z,993.69
2018-03-26T07:44:48.706Z,993.71
2018-03-26T07:45:48.658Z,993.71
2018-03-26T07:46:48.576Z,993.80
2018-03-26T07:47:48.506Z,993.77
2018-03-26T07:48:48.438Z,993.65
2018-03-26T07:49:48.369Z,993.75
2018-03-26T07:50:48.302Z,993.72
2018-03-26T07:51:48.264Z,993.74
2018-03-26T07:52:48.174Z,993.75
2018-03-26T07:53:48.090Z,993.76
2018-03-26T07:54:48.023Z,993.67
2018-03-26T07:55:47.972Z,993.72
2018-03-26T07:56:47.916Z,993.70
2018-03-26T07:57:47.816Z,993.75
2018-03-26T07:58:47.761Z,993.74
2018-03-26T07:59:47.688Z,993.82
2018-03-26T08:00:47.612Z,993.84
2018-03-26T08:01:47.570Z,993.87
2018-03-26T08:02:47.549Z,993.80
2018-03-26T08:03:47.406Z,993.79
2018-03-26T08:04:47.338Z,993.81
2018-03-26T08:05:47.271Z,993.89
2018-03-26T08:06:47.211Z,993.86
2018-03-26T08:07:47.126Z,993.89
2018-03-26T08:08:47.056Z,993.81
2018-03-26T08:09:46.984Z,993.89
2018-03-26T08:10:46.932Z,993.93
2018-03-26T08:11:46.846Z,994.00
2018-03-26T08:12:46.772Z,993.95
2018-03-26T08:13:46.716Z,993.94
2018-03-26T08:14:46.634Z,993.98
2018-03-26T08:15:46.589Z,993.91
2018-03-26T08:16:46.528Z,993.98
2018-03-26T08:17:46.448Z,993.91
2018-03-26T08:18:46.371Z,993.95
2018-03-26T08:19:46.286Z,993.98
2018-03-26T08:20:46.214Z,993.99
2018-03-26T08:21:46.144Z,994.11
2018-03-26T08:22:46.107Z,994.05
2018-03-26T08:23:46.056Z,993.80
2018-03-26T08:24:45.955Z,994.17
2018-03-26T08:25:45.912Z,994.11
2018-03-26T08:26:45.813Z,994.04
2018-03-26T08:27:45.730Z,994.06
2018-03-26T08:28:45.664Z,994.19
2018-03-26T08:29:45.612Z,994.12
2018-03-26T08:30:45.526Z,994.09
2018-03-26T08:31:45.475Z,994.21
2018-03-26T08:32:45.383Z,994.17
2018-03-26T08:33:45.348Z,994.16
2018-03-26T08:34:45.251Z,994.15
2018-03-26T08:35:45.176Z,994.25
2018-03-26T08:36:45.118Z,994.15
2018-03-26T08:37:45.036Z,994.20
2018-03-26T08:38:44.995Z,994.27
2018-03-26T08:39:44.912Z,994.30
2018-03-26T08:40:44.834Z,994.33
2018-03-26T08:41:44.783Z,994.32
2018-03-26T08:42:44.703Z,994.33
2018-03-26T08:43:44.653Z,994.23
2018-03-26T08:44:44.560Z,994.38
2018-03-26T08:45:44.508Z,994.43
2018-03-26T08:46:44.420Z,994.50
2018-03-26T08:47:44.369Z,994.40
2018-03-26T08:48:44.307Z,994.31
2018-03-26T08:49:44.319Z,994.52
2018-03-26T08:50:44.168Z,994.48
2018-03-26T08:51:44.098Z,994.51
2018-03-26T08:52:44.014Z,994.48
2018-03-26T08:53:43.946Z,994.37
2018-03-26T08:54:43.874Z,994.47
2018-03-26T08:55:43.814Z,994.54
2018-03-26T08:56:43.759Z,994.49
2018-03-26T08:57:43.662Z,994.37
2018-03-26T08:58:43.598Z,994.54
2018-03-26T08:59:43.526Z,994.55
2018-03-26T09:00:43.461Z,994.57
2018-03-26T09:01:43.386Z,994.60
2018-03-26T09:02:43.314Z,994.52
2018-03-26T09:03:43.252Z,994.60
2018-03-26T09:04:43.195Z,994.73
2018-03-26T09:05:43.146Z,994.82
2018-03-26T09:06:43.048Z,994.79
2018-03-26T09:07:42.972Z,994.74
2018-03-26T09:08:42.911Z,994.72
2018-03-26T09:09:42.834Z,994.76
2018-03-26T09:10:42.763Z,994.88
2018-03-26T09:11:42.700Z,994.76
2018-03-26T09:12:42.628Z,994.75
2018-03-26T09:13:42.577Z,994.77
2018-03-26T09:14:42.513Z,994.76
2018-03-26T09:15:42.422Z,994.75
2018-03-26T09:16:42.360Z,994.84
2018-03-26T09:17:42.282Z,994.68
2018-03-26T09:18:42.230Z,994.78
2018-03-26T09:19:42.142Z,994.61
2018-03-26T09:20:42.076Z,994.51
2018-03-26T09:21:42.001Z,994.47
2018-03-26T09:22:41.956Z,994.44
2018-03-26T09:23:41.881Z,994.59
2018-03-26T09:24:41.814Z,994.44
2018-03-26T09:25:41.733Z,994.51
2018-03-26T09:26:41.675Z,994.53
2018-03-26T09:27:41.607Z,994.65
2018-03-26T09:28:41.522Z,994.61
2018-03-26T09:29:41.481Z,994.59
2018-03-26T09:30:41.386Z,994.49
2018-03-26T09:31:41.362Z,994.47
2018-03-26T09:32:41.248Z,994.66
2018-03-26T09:33:41.198Z,994.69
2018-03-26T09:34:41.158Z,994.64
2018-03-26T09:35:41.064Z,994.64
2018-03-26T09:36:40.977Z,994.65
2018-03-26T09:37:40.923Z,994.67
2018-03-26T09:38:40.861Z,994.82
2018-03-26T09:39:40.787Z,994.95
2018-03-26T09:40:40.716Z,994.89
2018-03-26T09:41:40.634Z,994.93
2018-03-26T09:42:40.564Z,994.79
2018-03-26T09:43:40.492Z,994.96
2018-03-26T09:44:40.420Z,995.07
2018-03-26T09:45:40.354Z,995.04
2018-03-26T09:46:40.291Z,995.09
2018-03-26T09:47:40.247Z,995.21
2018-03-26T09:48:40.169Z,995.17
2018-03-26T09:49:40.101Z,995.21
2018-03-26T09:50:40.012Z,995.16
2018-03-26T09:51:39.976Z,995.21
2018-03-26T09:52:39.895Z,995.11
2018-03-26T09:53:39.823Z,995.19
2018-03-26T09:54:39.757Z,995.16
2018-03-26T09:55:39.672Z,995.14
2018-03-26T09:56:39.626Z,995.18
2018-03-26T09:57:39.547Z,995.00
2018-03-26T09:58:39.466Z,995.13
2018-03-26T09:59:39.407Z,995.06
2018-03-26T10:00:39.354Z,995.06
2018-03-26T10:01:39.277Z,995.19
2018-03-26T10:02:39.196Z,995.04
2018-03-26T10:03:39.143Z,994.85
2018-03-26T10:04:39.068Z,995.07
2018-03-26T10:05:39.005Z,995.03
2018-03-26T10:06:38.922Z,995.17
2018-03-26T10:07:38.863Z,995.14
2018-03-26T10:08:38.782Z,994.99
2018-03-26T10:09:38.719Z,995.15
2018-03-26T10:10:38.639Z,995.07
2018-03-26T10:11:38.593Z,995.13
2018-03-26T10:12:38.521Z,995.01
2018-03-26T10:13:38.455Z,995.04
2018-03-26T10:14:38.389Z,994.99
2018-03-26T10:15:38.339Z,994.89
2018-03-26T10:16:38.241Z,995.07
2018-03-26T10:17:38.177Z,995.13
2018-03-26T10:18:38.104Z,995.01
2018-03-26T10:19:38.030Z,995.04
2018-03-26T10:20:37.994Z,995.01
2018-03-26T10:21:37.914Z,994.93
2018-03-26T10:22:37.822Z,994.93
2018-03-26T10:23:37.763Z,994.87
2018-03-26T10:24:37.692Z,994.91
2018-03-26T10:25:37.622Z,994.93
2018-03-26T10:26:37.565Z,994.88
2018-03-26T10:27:37.482Z,994.87
2018-03-26T10:28:37.413Z,994.76
2018-03-26T10:29:37.369Z,994.75
2018-03-26T10:30:37.272Z,994.80
2018-03-26T10:31:37.208Z,994.75
2018-03-26T10:32:37.145Z,994.79
2018-03-26T10:33:37.091Z,994.90
2018-03-26T10:34:37.009Z,994.95
2018-03-26T10:35:36.949Z,994.94
2018-03-26T10:36:36.893Z,994.90
2018-03-26T10:37:36.807Z,994.82
2018-03-26T10:38:36.749Z,994.96
2018-03-26T10:39:36.685Z,994.83
2018-03-26T10:40:36.594Z,994.94
2018-03-26T10:41:36.526Z,995.01
2018-03-26T10:42:36.489Z,995.11
2018-03-26T10:43:36.411Z,994.92
2018-03-26T10:44:36.353Z,994.75
2018-03-26T10:45:36.277Z,994.80
2018-03-26T10:46:36.184Z,994.92
2018-03-26T10:47:36.136Z,994.86
2018-03-26T10:48:36.048Z,994.85
2018-03-26T10:49:35.982Z,994.83
2018-03-26T10:50:35.913Z,994.70
2018-03-26T10:51:35.848Z,994.86
2018-03-26T10:52:35.801Z,994.81
2018-03-26T10:53:35.708Z,994.50
2018-03-26T10:54:35.653Z,994.89
2018-03-26T10:55:35.566Z,994.99
2018-03-26T10:56:35.551Z,994.96
2018-03-26T10:57:35.448Z,995.01
2018-03-26T10:58:35.365Z,994.88
2018-03-26T10:59:35.312Z,994.91
2018-03-26T11:00:35.265Z,995.05
2018-03-26T11:01:35.165Z,995.07
2018-03-26T11:02:35.095Z,995.04
2018-03-26T11:03:35.016Z,994.95
2018-03-26T11:04:34.976Z,995.18
2018-03-26T11:05:34.882Z,994.89
2018-03-26T11:06:34.831Z,995.08
2018-03-26T11:07:34.740Z,995.01
2018-03-26T11:08:34.672Z,995.04
2018-03-26T11:09:34.604Z,994.95
2018-03-26T11:10:34.548Z,994.96
2018-03-26T11:11:34.469Z,995.14
2018-03-26T11:12:34.410Z,994.99
2018-03-26T11:13:34.336Z,995.06
2018-03-26T11:14:34.264Z,995.05
2018-03-26T11:15:34.202Z,995.08
2018-03-26T11:16:34.139Z,995.04
2018-03-26T11:17:34.074Z,995.12
2018-03-26T11:18:33.983Z,995.05
2018-03-26T11:19:33.934Z,995.11
2018-03-26T11:20:33.898Z,994.98
2018-03-26T11:21:33.776Z,995.03
2018-03-26T11:22:33.725Z,994.97
2018-03-26T11:23:33.642Z,995.00
2018-03-26T11:24:33.583Z,995.10
2018-03-26T11:25:33.511Z,995.06
2018-03-26T11:26:33.452Z,995.12
2018-03-26T11:27:33.381Z,995.16
2018-03-26T11:28:33.293Z,994.96
2018-03-26T11:29:33.222Z,995.06
2018-03-26T11:30:33.174Z,995.06
2018-03-26T11:31:33.099Z,995.06
2018-03-26T11:32:33.035Z,995.15
2018-03-26T11:33:33.011Z,995.00
2018-03-26T11:34:32.877Z,995.01
2018-03-26T11:35:32.837Z,994.96
2018-03-26T11:36:32.757Z,994.97
2018-03-26T11:37:32.675Z,994.97
2018-03-26T11:38:32.621Z,994.92
2018-03-26T11:39:32.526Z,994.94
2018-03-26T11:40:32.484Z,994.97
2018-03-26T11:41:32.387Z,995.10
2018-03-26T11:42:32.340Z,995.09
2018-03-26T11:43:32.254Z,995.04
2018-03-26T11:44:32.197Z,995.03
2018-03-26T11:45:32.129Z,994.83
2018-03-26T11:46:32.045Z,994.94
2018-03-26T11:47:31.992Z,995.03
2018-03-26T11:48:31.921Z,995.01
2018-03-26T11:49:31.868Z,995.02
2018-03-26T11:50:31.773Z,995.00
2018-03-26T11:51:31.695Z,995.06
2018-03-26T11:52:31.642Z,994.98
2018-03-26T11:53:31.570Z,995.09
2018-03-26T11:54:31.485Z,995.09
2018-03-26T11:55:31.437Z,994.76
2018-03-26T11:56:31.350Z,995.18
2018-03-26T11:57:31.309Z,995.10
2018-03-26T11:58:31.215Z,995.08
2018-03-26T11:59:31.171Z,994.99
2018-03-26T12:00:31.091Z,995.19
2018-03-26T12:01:31.008Z,995.14
2018-03-26T12:02:30.955Z,995.23
2018-03-26T12:03:30.880Z,995.16
2018-03-26T12:04:30.799Z,995.20
2018-03-26T12:05:30.760Z,995.13
2018-03-26T12:06:30.660Z,995.06
2018-03-26T12:07:30.607Z,995.10
2018-03-26T12:08:30.539Z,995.08
2018-03-26T12:09:30.456Z,995.02
2018-03-26T12:10:30.405Z,995.05
2018-03-26T12:11:30.317Z,995.01
2018-03-26T12:12:30.264Z,995.00
2018-03-26T12:13:30.193Z,995.08
2018-03-26T12:14:30.111Z,994.98
2018-03-26T12:15:30.039Z,994.98
2018-03-26T12:16:29.970Z,994.95
2018-03-26T12:17:29.895Z,994.92
2018-03-26T12:18:29.862Z,994.85
2018-03-26T12:19:29.785Z,994.95
2018-03-26T12:20:29.687Z,994.85
2018-03-26T12:21:29.641Z,994.94
2018-03-26T12:22:29.581Z,995.03
2018-03-26T12:23:29.502Z,994.95
2018-03-26T12:24:29.449Z,994.95
2018-03-26T12:25:29.363Z,994.87
2018-03-26T12:26:29.280Z,994.93
2018-03-26T12:27:29.247Z,994.94